createdAt,value
2023-05-14T00:01:44.465Z,69.43
2023-05-14T00:04:23.799Z,69.98
2023-05-14T00:07:03.141Z,70.48
2023-05-14T00:09:42.432Z,70.82
2023-05-14T00:12:27.554Z,70.71
2023-05-14T00:15:06.928Z,70.65
2023-05-14T00:17:46.315Z,72.13
2023-05-14T00:20:25.951Z,72.07
2023-05-14T00:23:05.378Z,72.21
2023-05-14T00:25:44.721Z,72.33
2023-05-14T00:28:29.530Z,71.93
2023-05-14T00:31:08.900Z,72.09
2023-05-14T00:33:48.249Z,72.30
2023-05-14T00:36:27.539Z,72.44
2023-05-14T00:39:06.820Z,72.47
2023-05-14T00:41:46.086Z,72.65
2023-05-14T00:44:30.455Z,72.79
2023-05-14T00:47:09.813Z,72.93
2023-05-14T00:49:50.379Z,73.43
2023-05-14T00:52:29.817Z,73.61
2023-05-14T00:55:13.166Z,73.50
2023-05-14T00:57:52.585Z,73.58
2023-05-14T01:00:36.966Z,73.54
2023-05-14T01:03:17.078Z,73.65
2023-05-14T01:06:06.024Z,73.92
2023-05-14T01:08:58.247Z,73.94
2023-05-14T01:11:43.760Z,74.10
2023-05-14T01:14:29.494Z,73.81
2023-05-14T01:17:21.199Z,73.25
2023-05-14T01:20:03.232Z,72.28
2023-05-14T01:22:47.572Z,72.43
2023-05-14T01:25:26.964Z,71.83
2023-05-14T01:28:13.822Z,72.02
2023-05-14T01:31:00.662Z,72.10
2023-05-14T01:33:43.080Z,72.14
2023-05-14T01:36:23.086Z,72.72
2023-05-14T01:39:10.747Z,73.27
2023-05-14T01:41:51.312Z,73.32
2023-05-14T01:44:31.872Z,73.08
2023-05-14T01:47:11.397Z,72.84
2023-05-14T01:49:50.672Z,73.01
2023-05-14T01:52:29.961Z,72.47
2023-05-14T01:55:15.270Z,72.60
2023-05-14T01:57:54.573Z,72.59
2023-05-14T02:00:34.365Z,72.50
2023-05-14T02:03:13.739Z,72.13
2023-05-14T02:05:53.121Z,72.23
2023-05-14T02:08:32.427Z,72.06
2023-05-14T02:11:16.818Z,72.42
2023-05-14T02:13:56.359Z,72.18
2023-05-14T02:16:35.700Z,72.34
2023-05-14T02:19:15.468Z,71.75
2023-05-14T02:21:55.594Z,71.89
2023-05-14T02:24:34.969Z,71.57
2023-05-14T02:27:19.386Z,71.69
2023-05-14T02:30:01.875Z,71.96
2023-05-14T02:32:41.263Z,72.02
2023-05-14T02:35:20.816Z,72.45
2023-05-14T02:38:00.792Z,72.35
2023-05-14T02:40:40.056Z,72.13
2023-05-14T02:43:24.425Z,72.44
2023-05-14T02:46:03.736Z,72.65
2023-05-14T02:48:43.072Z,73.43
2023-05-14T02:51:22.703Z,73.92
2023-05-14T02:54:02.087Z,73.09
2023-05-14T02:56:41.602Z,73.45
2023-05-14T02:59:26.154Z,73.72
2023-05-14T03:02:05.799Z,73.93
2023-05-14T03:04:45.645Z,74.58
2023-05-14T03:07:24.952Z,75.31
2023-05-14T03:10:04.366Z,75.79
2023-05-14T03:12:43.774Z,76.13
2023-05-14T03:15:28.188Z,76.94
2023-05-14T03:18:07.952Z,77.36
2023-05-14T03:20:49.344Z,77.66
2023-05-14T03:23:28.712Z,77.41
2023-05-14T03:26:08.302Z,76.99
2023-05-14T03:28:48.166Z,77.00
2023-05-14T03:31:32.800Z,76.51
2023-05-14T03:34:12.210Z,76.56
2023-05-14T03:36:51.594Z,76.76
2023-05-14T03:39:30.937Z,76.96
2023-05-14T03:42:10.303Z,77.12
2023-05-14T03:44:49.651Z,76.87
2023-05-14T03:47:34.201Z,76.38
2023-05-14T03:50:15.406Z,75.08
2023-05-14T03:52:54.807Z,74.45
2023-05-14T03:55:34.154Z,74.67
2023-05-14T03:58:15.258Z,75.15
2023-05-14T04:00:54.970Z,75.58
2023-05-14T04:03:39.485Z,75.69
2023-05-14T04:06:19.011Z,75.75
2023-05-14T04:08:58.341Z,75.70
2023-05-14T04:11:37.693Z,75.89
2023-05-14T04:14:17.121Z,76.38
2023-05-14T04:16:56.412Z,76.29
2023-05-14T04:19:41.704Z,76.69
2023-05-14T04:22:21.003Z,76.78
2023-05-14T04:25:00.314Z,76.86
2023-05-14T04:27:41.378Z,76.83
2023-05-14T04:30:21.161Z,76.87
2023-05-14T04:33:00.711Z,77.04
2023-05-14T04:35:45.169Z,76.96
2023-05-14T04:38:24.461Z,76.89
2023-05-14T04:41:03.746Z,76.82
2023-05-14T04:43:43.067Z,76.45
2023-05-14T04:46:22.457Z,76.52
2023-05-14T04:49:02.024Z,76.98
2023-05-14T04:51:46.469Z,76.70
2023-05-14T04:54:25.832Z,76.32
2023-05-14T04:57:05.941Z,76.01
2023-05-14T04:59:45.248Z,76.06
2023-05-14T05:02:24.570Z,76.16
2023-05-14T05:05:04.063Z,75.43
2023-05-14T05:07:48.452Z,75.23
2023-05-14T05:10:27.783Z,74.99
2023-05-14T05:13:07.472Z,74.48
2023-05-14T05:15:47.143Z,74.87
2023-05-14T05:18:26.576Z,74.97
2023-05-14T05:21:05.963Z,75.19
2023-05-14T05:23:50.311Z,74.99
2023-05-14T05:26:31.750Z,75.06
2023-05-14T05:29:11.769Z,74.99
2023-05-14T05:31:51.259Z,75.65
2023-05-14T05:34:30.749Z,75.41
2023-05-14T05:37:13.913Z,75.67
2023-05-14T05:39:58.295Z,75.35
2023-05-14T05:42:37.649Z,75.55
2023-05-14T05:45:17.891Z,74.46
2023-05-14T05:47:57.256Z,74.34
2023-05-14T05:50:36.744Z,74.54
2023-05-14T05:53:17.784Z,74.46
2023-05-14T05:56:02.182Z,74.82
2023-05-14T05:58:41.588Z,75.38
2023-05-14T06:01:21.022Z,74.39
2023-05-14T06:04:00.780Z,74.90
2023-05-14T06:06:40.225Z,74.51
2023-05-14T06:09:19.632Z,74.48
2023-05-14T06:12:04.026Z,74.49
2023-05-14T06:14:43.315Z,73.79
2023-05-14T06:17:22.748Z,73.98
2023-05-14T06:20:02.242Z,72.61
2023-05-14T06:22:41.624Z,73.16
2023-05-14T06:25:21.001Z,72.46
2023-05-14T06:28:05.385Z,71.78
2023-05-14T06:30:44.768Z,71.54
2023-05-14T06:33:31.025Z,71.43
2023-05-14T06:36:12.761Z,72.66
2023-05-14T06:38:52.203Z,72.32
2023-05-14T06:41:31.580Z,72.08
2023-05-14T06:44:15.980Z,71.83
2023-05-14T06:46:55.282Z,71.96
2023-05-14T06:49:34.583Z,72.40
2023-05-14T06:52:14.406Z,71.08
2023-05-14T06:54:53.701Z,71.20
2023-05-14T06:57:33.021Z,71.18
2023-05-14T07:00:18.809Z,70.88
2023-05-14T07:02:58.201Z,70.97
2023-05-14T07:05:37.677Z,71.27
2023-05-14T07:08:17.003Z,70.94
2023-05-14T07:10:56.274Z,70.21
2023-05-14T07:13:35.707Z,69.85
2023-05-14T07:16:20.477Z,69.93
2023-05-14T07:18:59.918Z,68.68
2023-05-14T07:21:39.270Z,68.44
2023-05-14T07:24:18.582Z,68.25
2023-05-14T07:26:58.494Z,67.45
2023-05-14T07:29:37.756Z,65.98
2023-05-14T07:32:22.182Z,66.38
2023-05-14T07:35:01.558Z,65.56
2023-05-14T07:37:42.809Z,66.69
2023-05-14T07:40:22.810Z,66.72
2023-05-14T07:43:04.432Z,66.84
2023-05-14T07:45:44.226Z,65.31
2023-05-14T07:48:30.419Z,64.26
2023-05-14T07:51:09.787Z,63.73
2023-05-14T07:53:49.103Z,63.67
2023-05-14T07:56:28.659Z,63.77
2023-05-14T07:59:08.342Z,63.73
2023-05-14T08:01:48.161Z,63.75
2023-05-14T08:04:32.752Z,60.76
2023-05-14T08:07:12.620Z,60.94
2023-05-14T08:09:51.924Z,60.77
2023-05-14T08:12:31.532Z,59.62
2023-05-14T08:15:11.678Z,60.23
2023-05-14T08:17:51.019Z,59.54
2023-05-14T08:20:35.540Z,60.05
2023-05-14T08:23:15.084Z,60.19
2023-05-14T08:25:54.390Z,59.07
2023-05-14T08:28:33.671Z,59.44
2023-05-14T08:31:15.964Z,59.24
2023-05-14T08:33:55.399Z,59.07
2023-05-14T08:36:39.886Z,59.06
2023-05-14T08:39:19.237Z,58.53
2023-05-14T08:41:59.388Z,58.10
2023-05-14T08:44:46.315Z,58.36
2023-05-14T08:47:29.626Z,57.35
2023-05-14T08:50:11.439Z,56.65
2023-05-14T08:52:57.465Z,55.77
2023-05-14T08:55:38.637Z,55.98
2023-05-14T08:58:18.421Z,55.75
2023-05-14T09:00:57.827Z,54.98
2023-05-14T09:03:38.539Z,53.94
2023-05-14T09:06:20.623Z,52.42
2023-05-14T09:09:05.129Z,51.85
2023-05-14T09:11:48.702Z,51.77
2023-05-14T09:14:29.675Z,52.09
2023-05-14T09:17:09.098Z,51.30
2023-05-14T09:19:50.351Z,51.34
2023-05-14T09:22:30.044Z,50.75
2023-05-14T09:25:16.908Z,51.48
2023-05-14T09:27:58.773Z,52.24
2023-05-14T09:30:38.349Z,51.45
2023-05-14T09:33:19.191Z,51.49
2023-05-14T09:35:59.104Z,52.93
2023-05-14T09:38:40.254Z,52.08
2023-05-14T09:41:24.700Z,52.07
2023-05-14T09:44:06.676Z,52.81
2023-05-14T09:46:46.188Z,51.15
2023-05-14T09:49:26.183Z,52.55
2023-05-14T09:52:06.112Z,52.31
2023-05-14T09:54:47.062Z,51.94
2023-05-14T09:57:31.530Z,51.98
2023-05-14T10:00:12.973Z,51.66
2023-05-14T10:02:55.088Z,51.16
2023-05-14T10:05:36.061Z,50.83
2023-05-14T10:08:20.819Z,49.49
2023-05-14T10:11:02.538Z,51.12
2023-05-14T10:13:53.898Z,51.40
2023-05-14T10:16:36.331Z,51.46
2023-05-14T10:19:18.510Z,50.65
2023-05-14T10:22:09.627Z,49.92
2023-05-14T10:24:51.551Z,50.20
2023-05-14T10:27:31.555Z,51.14
2023-05-14T10:30:19.431Z,52.00
2023-05-14T10:33:14.583Z,51.83
2023-05-14T10:36:04.654Z,51.28
2023-05-14T10:38:45.710Z,51.10
2023-05-14T10:41:25.173Z,52.45
2023-05-14T10:44:05.097Z,52.01
2023-05-14T10:46:49.982Z,51.15
2023-05-14T10:49:43.003Z,51.47
2023-05-14T10:52:25.679Z,52.64
2023-05-14T10:55:08.903Z,52.49
2023-05-14T10:57:50.745Z,51.57
2023-05-14T11:00:35.305Z,52.17
2023-05-14T11:03:21.310Z,52.69
2023-05-14T11:06:03.182Z,52.29
2023-05-14T11:08:42.982Z,52.33
2023-05-14T11:11:23.051Z,51.82
2023-05-14T11:14:03.607Z,50.55
2023-05-14T11:16:43.152Z,52.28
2023-05-14T11:19:29.214Z,51.12
2023-05-14T11:22:09.273Z,51.46
2023-05-14T11:24:48.990Z,50.96
2023-05-14T11:27:29.637Z,50.77
2023-05-14T11:30:10.335Z,50.88
2023-05-14T11:32:53.764Z,50.66
2023-05-14T11:35:38.591Z,50.17
2023-05-14T11:38:21.728Z,50.34
2023-05-14T11:41:02.106Z,49.28
2023-05-14T11:43:46.619Z,49.18
2023-05-14T11:46:27.379Z,49.46
2023-05-14T11:49:08.466Z,48.96
2023-05-14T11:51:52.829Z,48.06
2023-05-14T11:54:33.891Z,48.13
2023-05-14T11:57:17.878Z,47.33
2023-05-14T12:00:05.899Z,47.68
2023-05-14T12:02:45.517Z,46.65
2023-05-14T12:05:25.348Z,45.58
2023-05-14T12:08:09.784Z,46.21
2023-05-14T12:10:49.541Z,45.00
2023-05-14T12:13:29.294Z,46.11
2023-05-14T12:16:10.099Z,45.23
2023-05-14T12:18:50.837Z,44.30
2023-05-14T12:21:32.382Z,43.18
2023-05-14T12:24:18.191Z,43.91
2023-05-14T12:27:00.520Z,42.39
2023-05-14T12:29:44.275Z,41.96
2023-05-14T12:32:23.658Z,42.41
2023-05-14T12:35:03.020Z,40.87
2023-05-14T12:37:43.816Z,41.94
2023-05-14T12:40:28.314Z,39.35
2023-05-14T12:43:07.786Z,40.74
2023-05-14T12:45:47.115Z,40.27
2023-05-14T12:48:26.519Z,38.77
2023-05-14T12:51:05.880Z,39.76
2023-05-14T12:53:45.251Z,38.43
2023-05-14T12:56:29.766Z,36.32
2023-05-14T12:59:10.638Z,36.17
2023-05-14T13:01:50.010Z,36.07
2023-05-14T13:04:29.480Z,37.85
2023-05-14T13:07:10.052Z,36.94
2023-05-14T13:09:49.448Z,39.76
2023-05-14T13:12:33.860Z,40.01
2023-05-14T13:15:14.355Z,40.32
2023-05-14T13:17:53.673Z,40.63
2023-05-14T13:20:33.628Z,41.23
2023-05-14T13:23:13.082Z,40.69
2023-05-14T13:25:52.381Z,41.36
2023-05-14T13:28:36.861Z,40.67
2023-05-14T13:31:18.157Z,41.85
2023-05-14T13:33:59.227Z,39.52
2023-05-14T13:36:40.818Z,39.16
2023-05-14T13:39:23.804Z,37.86
2023-05-14T13:42:03.088Z,37.12
2023-05-14T13:44:47.475Z,36.07
2023-05-14T13:47:26.899Z,35.34
2023-05-14T13:50:06.384Z,33.93
2023-05-14T13:52:45.727Z,35.34
2023-05-14T13:55:25.273Z,35.40
2023-05-14T13:58:05.573Z,35.63
2023-05-14T14:00:50.051Z,36.28
2023-05-14T14:03:29.401Z,36.74
2023-05-14T14:06:08.658Z,37.81
2023-05-14T14:08:47.954Z,38.73
2023-05-14T14:11:27.359Z,39.47
2023-05-14T14:14:06.785Z,38.63
2023-05-14T14:16:51.522Z,34.92
2023-05-14T14:19:31.282Z,33.81
2023-05-14T14:22:10.733Z,35.22
2023-05-14T14:24:50.046Z,35.53
2023-05-14T14:27:29.511Z,35.13
2023-05-14T14:30:08.808Z,36.17
2023-05-14T14:32:54.105Z,37.50
2023-05-14T14:35:34.614Z,38.82
2023-05-14T14:38:13.964Z,38.17
2023-05-14T14:40:53.566Z,37.79
2023-05-14T14:43:32.954Z,36.56
2023-05-14T14:46:12.622Z,36.83
2023-05-14T14:48:57.070Z,35.78
2023-05-14T14:51:36.575Z,35.78
2023-05-14T14:54:15.919Z,36.93
2023-05-14T14:56:55.577Z,37.70
2023-05-14T14:59:34.848Z,35.08
2023-05-14T15:02:16.673Z,34.51
2023-05-14T15:05:01.209Z,34.88
2023-05-14T15:07:40.589Z,35.17
2023-05-14T15:10:19.897Z,34.50
2023-05-14T15:12:59.250Z,35.59
2023-05-14T15:15:39.780Z,34.74
2023-05-14T15:18:19.086Z,33.91
2023-05-14T15:21:03.484Z,32.60
2023-05-14T15:23:42.835Z,32.09
2023-05-14T15:26:22.967Z,31.96
2023-05-14T15:29:02.293Z,31.83
2023-05-14T15:31:42.531Z,31.14
2023-05-14T15:34:21.887Z,30.37
2023-05-14T15:37:06.260Z,29.96
2023-05-14T15:39:45.796Z,30.60
2023-05-14T15:42:25.216Z,29.88
2023-05-14T15:45:04.602Z,30.51
2023-05-14T15:47:45.476Z,31.24
2023-05-14T15:50:25.725Z,30.92
2023-05-14T15:53:10.427Z,30.70
2023-05-14T15:55:53.250Z,30.31
2023-05-14T15:58:32.849Z,30.67
2023-05-14T16:01:12.472Z,30.35
2023-05-14T16:03:52.742Z,30.59
2023-05-14T16:06:33.468Z,30.35
2023-05-14T16:09:17.953Z,30.57
2023-05-14T16:11:57.321Z,30.10
2023-05-14T16:14:36.616Z,30.22
2023-05-14T16:17:16.086Z,29.97
2023-05-14T16:19:56.776Z,30.09
2023-05-14T16:22:37.254Z,31.01
2023-05-14T16:25:21.819Z,30.26
2023-05-14T16:28:01.701Z,31.17
2023-05-14T16:30:41.155Z,30.82
2023-05-14T16:33:20.531Z,30.73
2023-05-14T16:35:59.897Z,29.97
2023-05-14T16:38:48.196Z,31.25
2023-05-14T16:41:41.494Z,30.04
2023-05-14T16:44:20.789Z,30.31
2023-05-14T16:47:00.166Z,29.67
2023-05-14T16:49:39.431Z,29.81
2023-05-14T16:52:18.732Z,30.70
2023-05-14T16:54:58.132Z,30.57
2023-05-14T16:57:42.679Z,31.56
2023-05-14T17:00:22.780Z,32.75
2023-05-14T17:03:03.731Z,32.59
2023-05-14T17:05:43.297Z,32.17
2023-05-14T17:08:22.676Z,32.33
2023-05-14T17:11:02.282Z,32.86
2023-05-14T17:13:46.635Z,33.67
2023-05-14T17:16:26.495Z,35.74
2023-05-14T17:19:06.140Z,36.47
2023-05-14T17:21:45.448Z,36.84
2023-05-14T17:24:24.749Z,37.72
2023-05-14T17:27:04.156Z,39.79
2023-05-14T17:29:50.472Z,40.58
2023-05-14T17:32:30.778Z,40.24
2023-05-14T17:35:10.904Z,40.76
2023-05-14T17:37:50.288Z,40.90
2023-05-14T17:40:29.576Z,40.29
2023-05-14T17:43:09.683Z,41.95
2023-05-14T17:45:54.902Z,44.38
2023-05-14T17:48:34.496Z,49.93
2023-05-14T17:51:13.929Z,50.23
2023-05-14T17:53:53.227Z,49.68
2023-05-14T17:56:32.690Z,52.61
2023-05-14T17:59:12.113Z,53.49
2023-05-14T18:01:56.517Z,55.80
2023-05-14T18:04:37.729Z,58.20
2023-05-14T18:07:17.568Z,58.78
2023-05-14T18:10:01.541Z,59.41
2023-05-14T18:12:40.850Z,59.44
2023-05-14T18:15:21.477Z,59.81
2023-05-14T18:18:06.322Z,59.17
2023-05-14T18:20:48.793Z,58.49
2023-05-14T18:23:28.403Z,59.66
2023-05-14T18:26:07.946Z,59.33
2023-05-14T18:28:47.927Z,59.31
2023-05-14T18:31:28.624Z,60.02
2023-05-14T18:34:13.036Z,61.31
2023-05-14T18:36:52.310Z,61.96
2023-05-14T18:39:31.614Z,63.61
2023-05-14T18:42:11.956Z,63.28
2023-05-14T18:44:51.250Z,64.00
2023-05-14T18:47:30.631Z,63.77
2023-05-14T18:50:16.884Z,64.50
2023-05-14T18:52:56.156Z,64.91
2023-05-14T18:55:35.616Z,64.74
2023-05-14T18:58:15.722Z,64.19
2023-05-14T19:00:55.124Z,64.84
2023-05-14T19:03:35.071Z,65.01
2023-05-14T19:06:19.641Z,65.50
2023-05-14T19:08:59.813Z,65.53
2023-05-14T19:11:39.300Z,65.31
2023-05-14T19:14:18.628Z,65.07
2023-05-14T19:16:58.604Z,64.62
2023-05-14T19:19:38.586Z,65.33
2023-05-14T19:22:23.159Z,65.42
2023-05-14T19:25:03.226Z,65.17
2023-05-14T19:27:46.062Z,65.24
2023-05-14T19:30:26.863Z,65.80
2023-05-14T19:33:06.214Z,65.63
2023-05-14T19:35:45.604Z,66.13
2023-05-14T19:38:30.817Z,67.36
2023-05-14T19:41:10.109Z,67.14
2023-05-14T19:43:49.415Z,67.56
2023-05-14T19:46:28.938Z,67.47
2023-05-14T19:49:08.299Z,67.50
2023-05-14T19:51:47.618Z,68.14
2023-05-14T19:54:32.106Z,67.98
2023-05-14T19:57:12.332Z,67.85
2023-05-14T19:59:51.626Z,68.67
2023-05-14T20:02:30.962Z,68.40
2023-05-14T20:05:10.281Z,67.85
2023-05-14T20:07:50.112Z,67.75
2023-05-14T20:10:34.643Z,68.05
2023-05-14T20:13:14.155Z,69.02
2023-05-14T20:15:53.469Z,68.52
2023-05-14T20:18:33.188Z,68.49
2023-05-14T20:21:12.834Z,68.24
2023-05-14T20:23:52.103Z,68.80
2023-05-14T20:26:36.954Z,68.50
2023-05-14T20:29:16.930Z,68.41
2023-05-14T20:31:56.264Z,68.56
2023-05-14T20:34:37.098Z,68.86
2023-05-14T20:37:16.435Z,69.43
2023-05-14T20:39:55.997Z,70.00
2023-05-14T20:42:40.378Z,70.89
2023-05-14T20:45:21.365Z,70.88
2023-05-14T20:48:00.741Z,70.97
2023-05-14T20:50:40.204Z,70.29
2023-05-14T20:53:19.570Z,70.20
2023-05-14T20:56:00.115Z,69.85
2023-05-14T20:58:44.493Z,70.10
2023-05-14T21:01:23.837Z,70.15
2023-05-14T21:04:03.299Z,70.88
2023-05-14T21:06:42.848Z,70.25
2023-05-14T21:09:22.517Z,69.99
2023-05-14T21:12:01.987Z,70.30
2023-05-14T21:14:46.370Z,71.48
2023-05-14T21:17:25.887Z,71.97
2023-05-14T21:20:05.285Z,72.55
2023-05-14T21:22:44.645Z,72.94
2023-05-14T21:25:24.145Z,72.77
2023-05-14T21:28:03.798Z,72.90
2023-05-14T21:30:48.205Z,73.39
2023-05-14T21:33:27.469Z,73.17
2023-05-14T21:36:06.878Z,73.56
2023-05-14T21:38:46.528Z,73.59
2023-05-14T21:41:25.825Z,73.04
2023-05-14T21:44:05.093Z,73.01
2023-05-14T21:46:49.576Z,73.20
2023-05-14T21:49:28.963Z,73.43
2023-05-14T21:52:08.360Z,73.39
2023-05-14T21:54:47.674Z,73.82
2023-05-14T21:57:28.614Z,74.35
2023-05-14T22:00:11.533Z,73.57
2023-05-14T22:02:56.499Z,72.98
2023-05-14T22:05:36.416Z,73.07
2023-05-14T22:08:15.745Z,72.80
2023-05-14T22:10:55.112Z,73.00
2023-05-14T22:13:36.244Z,73.43
2023-05-14T22:16:15.989Z,72.76
2023-05-14T22:19:00.438Z,72.49
2023-05-14T22:21:39.810Z,72.92
2023-05-14T22:24:19.127Z,73.47
2023-05-14T22:26:58.463Z,73.50
2023-05-14T22:29:38.480Z,73.35
2023-05-14T22:32:17.874Z,73.66
2023-05-14T22:35:02.988Z,73.81
2023-05-14T22:37:42.433Z,73.73
2023-05-14T22:40:21.768Z,73.65
2023-05-14T22:43:01.144Z,73.60
2023-05-14T22:45:40.661Z,73.69
2023-05-14T22:48:19.995Z,73.66
2023-05-14T22:51:04.355Z,73.46
2023-05-14T22:53:43.726Z,73.40
2023-05-14T22:56:23.371Z,73.17
2023-05-14T22:59:02.776Z,73.39
2023-05-14T23:01:42.121Z,73.44
2023-05-14T23:04:21.817Z,73.48
2023-05-14T23:07:06.278Z,73.09
2023-05-14T23:09:45.836Z,73.02
2023-05-14T23:12:25.157Z,72.82
2023-05-14T23:15:05.198Z,72.55
2023-05-14T23:17:45.112Z,72.14
2023-05-14T23:20:24.659Z,72.15
2023-05-14T23:23:09.043Z,72.21
2023-05-14T23:25:50.031Z,72.43
2023-05-14T23:28:29.415Z,72.50
2023-05-14T23:31:08.709Z,71.81
2023-05-14T23:33:47.989Z,71.69
2023-05-14T23:36:27.314Z,71.73
2023-05-14T23:39:12.076Z,71.88
2023-05-14T23:41:51.388Z,71.69
2023-05-14T23:44:30.665Z,71.41
2023-05-14T23:47:10.538Z,71.35
2023-05-14T23:49:49.921Z,71.53
2023-05-14T23:52:29.238Z,71.44
2023-05-14T23:55:14.517Z,71.81
2023-05-14T23:57:54.303Z,72.11
